Terminal Aerodrome Forecast
Issued by NWS

Home | Current Version | Previous Version | Graphics & Text | Print | Product List | Glossary On
Versions: 1 2 3 4 5 6 7 8 9 10 11 12 13 14 15 16
000
FTUS43 KBIS 200859 AAB
TAFJMS
TAF AMD
KJMS 200859Z 2009/2106 30011KT P6SM SCT040
     FM201200 27011KT P6SM FEW050 SCT200
     FM201700 24013KT P6SM FEW060 FEW250
     FM210000 20008KT P6SM FEW100 FEW250
     FM210300 16009KT P6SM FEW130 FEW250 WS013/19025KT=

USA.gov is the U.S. government's official web portal to all federal, state and local government web resources and services.